Time;durP1;ratioP1;P1;durP2;ratioP2;P2;SDS_P1;SDS_P2;PMS_P1;PMS_P2;Temp;Humidity;BMP_temperature;BMP_pressure;BME280_temperature;BME280_humidity;BME280_pressure;Samples;Min_cycle;Max_cycle;Signal;HPM_P1;HPM_P2
2023/09/18 00:00:11;;;;;;;28.70;20.73;;;;;;;;;;5112478;27;20043;-76
2023/09/18 00:02:37;;;;;;;29.63;20.98;;;;;;;;;;5092581;27;20057;-75
2023/09/18 00:05:04;;;;;;;;;;;;;;;;;;5093752;27;20495;-75
2023/09/18 00:07:30;;;;;;;28.95;21.42;;;;;;;;;;5113805;27;19923;-75
2023/09/18 00:09:56;;;;;;;;;;;;;;;;;;5106306;27;20051;-77
2023/09/18 00:12:22;;;;;;;30.25;22.35;;;;;;;;;;5124496;27;19925;-75
2023/09/18 00:14:49;;;;;;;29.33;22.23;;;;;;;;;;5119519;27;20130;-75
2023/09/18 00:17:16;;;;;;;28.77;21.02;;;;;;;;;;5120360;27;20042;-78
2023/09/18 00:19:42;;;;;;;27.75;19.45;;;;;;;;;;5119660;27;20046;-75
2023/09/18 00:22:09;;;;;;;19.58;14.07;;;;;;;;;;5111756;27;20095;-75
2023/09/18 00:24:35;;;;;;;12.77;9.73;;;;;;;;;;5116765;27;20448;-75
2023/09/18 00:27:01;;;;;;;;;;;;;;;;;;5133158;27;20042;-75
2023/09/18 00:29:27;;;;;;;24.73;18.05;;;;;;;;;;5119042;27;20334;-75
2023/09/18 00:31:53;;;;;;;20.38;14.77;;;;;;;;;;5118896;27;20049;-75
2023/09/18 00:34:19;;;;;;;18.80;13.35;;;;;;;;;;5117647;27;20441;-75
2023/09/18 00:36:45;;;;;;;15.48;10.50;;;;;;;;;;5131377;27;20551;-75
2023/09/18 00:39:11;;;;;;;15.02;8.75;;;;;;;;;;5098025;27;20099;-75
2023/09/18 00:41:38;;;;;;;11.98;9.32;;;;;;;;;;5132343;27;20054;-75
2023/09/18 00:44:05;;;;;;;17.08;12.38;;;;;;;;;;5114437;27;20051;-76
2023/09/18 00:46:31;;;;;;;17.98;11.60;;;;;;;;;;5133773;27;20147;-75
2023/09/18 00:48:57;;;;;;;15.90;12.05;;;;;;;;;;5135592;27;20038;-77
2023/09/18 00:51:24;;;;;;;22.25;15.88;;;;;;;;;;5134117;27;20047;-75
2023/09/18 00:53:50;;;;;;;15.77;11.82;;;;;;;;;;5131310;27;20043;-75
2023/09/18 00:56:16;;;;;;;21.23;17.02;;;;;;;;;;5097560;27;20108;-75
2023/09/18 00:58:43;;;;;;;10.65;8.35;;;;;;;;;;5098396;27;20051;-75
2023/09/18 01:01:10;;;;;;;9.15;7.10;;;;;;;;;;5112879;27;20133;-75
2023/09/18 01:03:36;;;;;;;15.52;12.32;;;;;;;;;;5134974;27;20115;-75
2023/09/18 01:06:08;;;;;;;14.75;11.48;;;;;;;;;;5135087;27;20050;-75
2023/09/18 01:08:34;;;;;;;13.35;9.73;;;;;;;;;;5135085;27;20047;-75
2023/09/18 01:11:05;;;;;;;16.55;13.00;;;;;;;;;;5096933;27;20051;-77
2023/09/18 01:13:38;;;;;;;10.48;7.95;;;;;;;;;;5115229;27;20079;-76
2023/09/18 01:16:22;;;;;;;17.83;13.80;;;;;;;;;;5115345;27;20137;-76
2023/09/18 01:18:51;;;;;;;10.35;8.10;;;;;;;;;;5112615;27;20051;-75
2023/09/18 01:21:21;;;;;;;13.85;10.50;;;;;;;;;;5095990;27;20681;-75
2023/09/18 01:23:47;;;;;;;10.02;7.40;;;;;;;;;;5114414;27;20051;-75
2023/09/18 01:26:16;;;;;;;12.98;9.45;;;;;;;;;;5119257;27;20138;-75
2023/09/18 01:28:42;;;;;;;19.38;15.48;;;;;;;;;;5133113;27;20047;-75
2023/09/18 01:31:09;;;;;;;;;;;;;;;;;;5097551;27;20133;-75
2023/09/18 01:33:36;;;;;;;9.73;7.50;;;;;;;;;;5114381;28;19944;-75
2023/09/18 01:36:02;;;;;;;19.98;14.18;;;;;;;;;;5114342;28;20388;-77
2023/09/18 01:38:29;;;;;;;14.30;10.80;;;;;;;;;;5132189;27;20055;-75
2023/09/18 01:40:55;;;;;;;13.68;10.75;;;;;;;;;;5128106;27;20102;-75
2023/09/18 01:43:21;;;;;;;22.38;16.27;;;;;;;;;;5113816;28;20043;-75
2023/09/18 01:45:48;;;;;;;12.32;9.52;;;;;;;;;;5097207;28;20043;-75
2023/09/18 01:48:19;;;;;;;18.88;14.00;;;;;;;;;;5113857;28;20131;-75
2023/09/18 01:50:48;;;;;;;11.80;9.18;;;;;;;;;;5114704;28;20119;-75
2023/09/18 01:53:14;;;;;;;;;;;;;;;;;;5095733;28;20058;-75
2023/09/18 01:55:41;;;;;;;15.82;10.80;;;;;;;;;;5097511;28;20601;-75
2023/09/18 01:58:09;;;;;;;11.15;8.65;;;;;;;;;;5097334;28;20135;-76
2023/09/18 02:00:36;;;;;;;15.27;11.30;;;;;;;;;;5114372;28;20400;-75
2023/09/18 02:03:04;;;;;;;10.35;8.18;;;;;;;;;;5122710;27;20039;-74
2023/09/18 02:05:31;;;;;;;22.70;15.82;;;;;;;;;;5101643;27;20043;-75
2023/09/18 02:07:57;;;;;;;12.45;9.68;;;;;;;;;;5117481;27;20097;-75
2023/09/18 02:10:24;;;;;;;20.60;14.50;;;;;;;;;;5118050;27;20046;-75
2023/09/18 02:12:50;;;;;;;12.20;9.35;;;;;;;;;;5135783;27;20059;-75
2023/09/18 02:15:16;;;;;;;10.25;7.60;;;;;;;;;;5117662;27;20047;-75
2023/09/18 02:17:44;;;;;;;9.88;7.35;;;;;;;;;;5118260;27;20054;-75
2023/09/18 02:20:11;;;;;;;13.60;9.60;;;;;;;;;;5100896;27;20608;-76
2023/09/18 02:22:39;;;;;;;13.05;9.57;;;;;;;;;;5099868;27;20138;-75
2023/09/18 02:25:08;;;;;;;12.48;9.57;;;;;;;;;;5141483;27;20046;-78
2023/09/18 02:27:34;;;;;;;15.38;10.55;;;;;;;;;;5121347;27;20479;-75
2023/09/18 02:30:02;;;;;;;17.90;12.35;;;;;;;;;;5138315;27;20636;-75
2023/09/18 02:32:28;;;;;;;14.38;10.10;;;;;;;;;;5114004;27;20691;-75
2023/09/18 02:34:57;;;;;;;8.38;6.35;;;;;;;;;;5114173;28;20059;-75
2023/09/18 02:37:24;;;;;;;12.20;9.05;;;;;;;;;;5113504;27;20136;-75
2023/09/18 02:39:50;;;;;;;8.77;6.70;;;;;;;;;;5127103;27;20559;-75
2023/09/18 02:42:17;;;;;;;12.60;8.60;;;;;;;;;;5134500;27;20055;-75
2023/09/18 02:44:46;;;;;;;13.90;10.75;;;;;;;;;;5118639;27;20054;-75
2023/09/18 02:47:12;;;;;;;12.23;8.30;;;;;;;;;;5116837;27;20051;-75
2023/09/18 02:49:38;;;;;;;11.70;8.73;;;;;;;;;;5118020;27;20047;-75
2023/09/18 02:52:05;;;;;;;11.68;7.35;;;;;;;;;;5132227;27;20051;-75
2023/09/18 02:54:31;;;;;;;12.38;9.07;;;;;;;;;;5130924;27;20047;-76
2023/09/18 02:56:57;;;;;;;;;;;;;;;;;;5114129;27;20061;-75
2023/09/18 02:59:30;;;;;;;12.95;8.32;;;;;;;;;;5097529;28;19927;-75
2023/09/18 03:01:57;;;;;;;9.30;7.13;;;;;;;;;;5103394;28;20527;-75
2023/09/18 03:04:23;;;;;;;9.23;7.05;;;;;;;;;;5096791;28;20047;-75
2023/09/18 03:06:49;;;;;;;14.15;8.05;;;;;;;;;;5112382;28;20050;-75
2023/09/18 03:09:16;;;;;;;15.65;10.30;;;;;;;;;;5113644;28;20132;-75
2023/09/18 03:11:43;;;;;;;11.95;8.82;;;;;;;;;;5114139;28;20065;-75
2023/09/18 03:14:09;;;;;;;13.23;8.55;;;;;;;;;;5112965;28;20092;-75
2023/09/18 03:16:36;;;;;;;9.40;6.70;;;;;;;;;;5096028;28;20138;-75
2023/09/18 03:19:03;;;;;;;9.73;6.70;;;;;;;;;;5088091;28;20052;-75
2023/09/18 03:21:30;;;;;;;8.52;6.32;;;;;;;;;;5109532;28;20061;-75
2023/09/18 03:23:57;;;;;;;16.38;10.73;;;;;;;;;;5113154;28;20511;-75
2023/09/18 03:26:23;;;;;;;9.43;7.07;;;;;;;;;;5096531;28;20053;-75
2023/09/18 03:28:49;;;;;;;;;;;;;;;;;;5132612;27;20051;-75
2023/09/18 03:31:15;;;;;;;12.02;8.32;;;;;;;;;;5116167;27;20474;-75
2023/09/18 03:33:41;;;;;;;;;;;;;;;;;;5134277;27;20058;-75
2023/09/18 03:36:10;;;;;;;11.95;7.85;;;;;;;;;;5133381;27;20395;-75
2023/09/18 03:38:37;;;;;;;12.50;8.05;;;;;;;;;;5116467;27;20089;-75
2023/09/18 03:41:04;;;;;;;16.00;9.20;;;;;;;;;;5116791;27;20039;-75
2023/09/18 03:43:30;;;;;;;12.15;7.82;;;;;;;;;;5127360;27;20044;-75
2023/09/18 03:45:56;;;;;;;;;;;;;;;;;;5113229;28;20056;-77
2023/09/18 03:48:23;;;;;;;9.30;5.78;;;;;;;;;;5106585;28;20003;-75
2023/09/18 03:50:50;;;;;;;11.45;7.82;;;;;;;;;;5119357;27;20047;-75
2023/09/18 03:53:16;;;;;;;14.10;9.55;;;;;;;;;;5131251;27;20062;-77
2023/09/18 03:55:42;;;;;;;9.55;7.05;;;;;;;;;;5116801;27;20480;-76
2023/09/18 03:58:08;;;;;;;12.00;7.63;;;;;;;;;;5109243;28;20047;-75
2023/09/18 04:00:34;;;;;;;9.02;5.88;;;;;;;;;;5112519;28;20079;-75
2023/09/18 04:03:00;;;;;;;10.25;6.97;;;;;;;;;;5096038;28;20047;-75
2023/09/18 04:05:26;;;;;;;8.70;6.22;;;;;;;;;;5100568;27;20051;-75
2023/09/18 04:07:53;;;;;;;12.18;8.07;;;;;;;;;;5132262;27;20047;-75
2023/09/18 04:10:22;;;;;;;10.18;6.15;;;;;;;;;;5116027;27;20361;-76
2023/09/18 04:12:50;;;;;;;10.70;7.43;;;;;;;;;;5133333;27;20051;-75
2023/09/18 04:15:18;;;;;;;9.05;6.32;;;;;;;;;;5116782;27;20130;-75
2023/09/18 04:17:44;;;;;;;7.10;5.05;;;;;;;;;;5132491;27;20107;-75
2023/09/18 04:20:12;;;;;;;11.80;8.80;;;;;;;;;;5116423;27;20439;-75
2023/09/18 04:22:43;;;;;;;10.75;7.40;;;;;;;;;;5114034;27;20055;-75
2023/09/18 04:25:09;;;;;;;17.05;9.65;;;;;;;;;;5117585;27;20040;-76
2023/09/18 04:27:35;;;;;;;14.27;8.93;;;;;;;;;;5129421;27;20047;-75
2023/09/18 04:30:01;;;;;;;16.08;10.98;;;;;;;;;;5116260;27;20035;-75
2023/09/18 04:32:27;;;;;;;;;;;;;;;;;;5115482;27;20117;-75
2023/09/18 04:34:53;;;;;;;14.20;9.73;;;;;;;;;;5096261;28;19981;-75
2023/09/18 04:37:19;;;;;;;14.40;8.50;;;;;;;;;;5117106;27;20039;-77
2023/09/18 04:39:45;;;;;;;15.52;9.32;;;;;;;;;;5132724;27;20039;-75
2023/09/18 04:42:11;;;;;;;;;;;;;;;;;;5133013;27;20488;-75
2023/09/18 04:44:37;;;;;;;12.45;6.82;;;;;;;;;;5115253;27;19919;-75
2023/09/18 04:47:03;;;;;;;11.40;8.30;;;;;;;;;;5098623;27;20047;-75
2023/09/18 04:49:30;;;;;;;13.20;8.35;;;;;;;;;;5125839;27;20123;-75
2023/09/18 04:51:56;;;;;;;;;;;;;;;;;;5111097;28;20523;-75
2023/09/18 04:54:28;;;;;;;13.63;8.18;;;;;;;;;;5111766;28;19942;-75
2023/09/18 04:56:54;;;;;;;;;;;;;;;;;;5094123;28;20055;-75
2023/09/18 04:59:20;;;;;;;9.50;6.13;;;;;;;;;;5095314;28;19920;-75
2023/09/18 05:01:46;;;;;;;7.78;5.22;;;;;;;;;;5077174;28;20088;-75
2023/09/18 05:04:12;;;;;;;14.52;7.93;;;;;;;;;;5111722;28;20081;-75
2023/09/18 05:06:41;;;;;;;11.70;7.63;;;;;;;;;;5109949;28;20079;-75
2023/09/18 05:09:08;;;;;;;13.90;8.88;;;;;;;;;;5094963;28;20044;-76
2023/09/18 05:11:34;;;;;;;10.20;5.75;;;;;;;;;;5130653;27;20049;-75
2023/09/18 05:14:00;;;;;;;9.18;5.13;;;;;;;;;;5098380;27;20062;-75
2023/09/18 05:16:26;;;;;;;9.23;6.47;;;;;;;;;;5100408;28;20051;-75
2023/09/18 05:18:53;;;;;;;;;;;;;;;;;;5095219;28;20043;-75
2023/09/18 05:21:24;;;;;;;10.88;7.05;;;;;;;;;;5093257;28;20356;-75
2023/09/18 05:23:50;;;;;;;11.55;7.05;;;;;;;;;;5112960;27;20077;-75
2023/09/18 05:26:16;;;;;;;9.40;6.32;;;;;;;;;;5132223;27;20050;-75
2023/09/18 05:28:42;;;;;;;10.95;6.13;;;;;;;;;;5131360;27;20480;-75
2023/09/18 05:31:09;;;;;;;;;;;;;;;;;;5106911;28;20075;-75
2023/09/18 05:33:35;;;;;;;15.52;7.05;;;;;;;;;;5093746;28;20368;-75
2023/09/18 05:36:01;;;;;;;7.95;5.05;;;;;;;;;;5077778;28;20143;-75
2023/09/18 05:38:30;;;;;;;10.05;6.78;;;;;;;;;;5111152;27;20063;-76
2023/09/18 05:40:56;;;;;;;10.85;6.63;;;;;;;;;;5114716;28;20176;-73
2023/09/18 05:43:22;;;;;;;;;;;;;;;;;;5126476;27;20062;-69
2023/09/18 05:45:49;;;;;;;12.57;7.72;;;;;;;;;;5112052;28;20014;-68
2023/09/18 05:48:15;;;;;;;15.20;9.23;;;;;;;;;;5111172;28;20054;-68
2023/09/18 05:50:41;;;;;;;;;;;;;;;;;;5121605;28;20061;-69
2023/09/18 05:53:08;;;;;;;12.07;7.73;;;;;;;;;;5119594;27;19919;-74
2023/09/18 05:55:34;;;;;;;16.42;8.68;;;;;;;;;;5131192;28;20288;-73
2023/09/18 05:58:01;;;;;;;15.35;8.77;;;;;;;;;;5128858;28;20480;-76
2023/09/18 06:00:27;;;;;;;11.90;7.20;;;;;;;;;;5093634;28;20396;-78
2023/09/18 06:02:53;;;;;;;20.15;8.88;;;;;;;;;;5127511;28;20044;-74
2023/09/18 06:05:21;;;;;;;15.32;9.07;;;;;;;;;;5114687;28;20051;-74
2023/09/18 06:07:47;;;;;;;11.23;7.00;;;;;;;;;;5129821;28;20055;-74
2023/09/18 06:10:13;;;;;;;13.85;8.48;;;;;;;;;;5131808;28;20054;-74
2023/09/18 06:12:40;;;;;;;15.80;8.70;;;;;;;;;;5123775;28;20589;-74
2023/09/18 06:15:12;;;;;;;17.77;9.90;;;;;;;;;;5094297;28;20092;-74
2023/09/18 06:17:42;;;;;;;14.32;9.00;;;;;;;;;;5110216;28;20051;-74
2023/09/18 06:20:09;;;;;;;14.68;9.57;;;;;;;;;;5128253;28;20145;-74
2023/09/18 06:22:36;;;;;;;18.48;9.38;;;;;;;;;;5108964;28;20062;-75
2023/09/18 06:25:02;;;;;;;15.63;8.75;;;;;;;;;;5112940;28;20102;-74
2023/09/18 06:27:28;;;;;;;;;;;;;;;;;;5108168;28;20031;-75
2023/09/18 06:29:54;;;;;;;17.15;8.98;;;;;;;;;;5093519;28;19988;-75
2023/09/18 06:32:21;;;;;;;13.30;8.52;;;;;;;;;;5099548;28;20055;-74
2023/09/18 06:34:47;;;;;;;15.52;8.40;;;;;;;;;;5094029;28;20488;-74
2023/09/18 06:37:13;;;;;;;19.40;8.88;;;;;;;;;;5109177;28;20047;-74
2023/09/18 06:39:39;;;;;;;17.20;8.52;;;;;;;;;;5110496;28;20122;-74
2023/09/18 06:42:05;;;;;;;;;;;;;;;;;;5110992;28;20047;-74
2023/09/18 06:44:31;;;;;;;21.48;8.38;;;;;;;;;;5117822;28;19919;-74
2023/09/18 06:46:57;;;;;;;14.50;7.93;;;;;;;;;;5113496;28;20047;-76
2023/09/18 06:49:24;;;;;;;;;;;;;;;;;;5081371;28;20043;-74
2023/09/18 06:51:50;;;;;;;20.15;7.72;;;;;;;;;;5095328;28;20026;-74
2023/09/18 06:54:16;;;;;;;21.02;8.18;;;;;;;;;;5080670;28;20047;-76
2023/09/18 06:56:44;;;;;;;20.08;8.57;;;;;;;;;;5131724;27;20128;-74
2023/09/18 06:59:11;;;;;;;16.88;8.13;;;;;;;;;;5133858;27;20051;-74
2023/09/18 07:01:37;;;;;;;22.50;9.13;;;;;;;;;;5116927;27;20108;-76
2023/09/18 07:04:04;;;;;;;22.80;10.48;;;;;;;;;;5135013;27;20079;-74
2023/09/18 07:06:31;;;;;;;19.10;10.93;;;;;;;;;;5133674;27;20458;-74
2023/09/18 07:08:57;;;;;;;22.25;13.57;;;;;;;;;;5099867;27;20134;-76
2023/09/18 07:11:23;;;;;;;;;;;;;;;;;;5121851;27;20069;-75
2023/09/18 07:13:49;;;;;;;26.58;14.25;;;;;;;;;;5126136;27;19920;-76
2023/09/18 07:16:15;;;;;;;;;;;;;;;;;;5114133;28;20150;-77
2023/09/18 07:18:41;;;;;;;29.77;16.83;;;;;;;;;;5117670;27;19963;-77
2023/09/18 07:21:07;;;;;;;32.03;18.85;;;;;;;;;;5116646;27;20298;-74
2023/09/18 07:23:36;;;;;;;;;;;;;;;;;;5122036;27;20043;-77
2023/09/18 07:26:03;;;;;;;28.58;17.02;;;;;;;;;;5118849;27;19919;-74
2023/09/18 07:28:29;;;;;;;31.30;18.05;;;;;;;;;;5120160;27;20092;-78
2023/09/18 07:30:55;;;;;;;29.08;17.65;;;;;;;;;;5125096;27;20047;-77
2023/09/18 07:33:21;;;;;;;33.03;19.23;;;;;;;;;;5120341;27;20059;-76
2023/09/18 07:35:48;;;;;;;29.42;18.92;;;;;;;;;;5123024;27;20130;-77
2023/09/18 07:38:14;;;;;;;27.25;17.45;;;;;;;;;;5110096;27;20054;-77
2023/09/18 07:40:40;;;;;;;31.38;18.75;;;;;;;;;;5120428;27;20043;-76
2023/09/18 07:43:06;;;;;;;32.75;18.92;;;;;;;;;;5112391;27;20084;-76
2023/09/18 07:45:32;;;;;;;;;;;;;;;;;;5096863;27;20056;-76
2023/09/18 07:47:58;;;;;;;33.00;19.00;;;;;;;;;;5127276;27;19941;-76
2023/09/18 07:50:24;;;;;;;;;;;;;;;;;;5128646;27;20129;-76
2023/09/18 07:52:50;;;;;;;32.65;19.13;;;;;;;;;;5113309;27;20014;-76
2023/09/18 07:55:16;;;;;;;;;;;;;;;;;;5130320;27;20044;-76
2023/09/18 07:57:44;;;;;;;28.98;18.05;;;;;;;;;;5133136;27;19924;-77
2023/09/18 08:00:13;;;;;;;30.20;18.63;;;;;;;;;;5126125;27;20093;-76
2023/09/18 08:02:39;;;;;;;28.98;17.70;;;;;;;;;;5121884;27;20141;-76
2023/09/18 08:05:07;;;;;;;36.17;26.77;;;;;;;;;;5122691;27;20104;-76
2023/09/18 08:07:33;;;;;;;31.70;17.20;;;;;;;;;;5105909;27;20051;-76
2023/09/18 08:09:59;;;;;;;;;;;;;;;;;;5133124;27;20051;-75
2023/09/18 08:12:25;;;;;;;24.50;14.75;;;;;;;;;;5128776;27;19923;-76
2023/09/18 08:14:51;;;;;;;27.63;16.15;;;;;;;;;;5114999;27;20042;-75
2023/09/18 08:17:17;;;;;;;;;;;;;;;;;;5113660;27;20039;-75
2023/09/18 08:19:44;;;;;;;28.30;15.90;;;;;;;;;;5126860;27;19920;-78
2023/09/18 08:22:15;;;;;;;29.75;16.55;;;;;;;;;;5121368;27;20040;-76
2023/09/18 08:24:41;;;;;;;26.83;16.75;;;;;;;;;;5114482;27;20048;-76
2023/09/18 08:27:07;;;;;;;26.27;16.70;;;;;;;;;;5114351;27;20043;-76
2023/09/18 08:29:34;;;;;;;33.28;16.35;;;;;;;;;;5131178;27;20035;-77
2023/09/18 08:31:59;;;;;;;;;;;;;;;;;;5121661;27;20043;-77
2023/09/18 08:34:26;;;;;;;27.58;16.48;;;;;;;;;;5123084;27;19931;-76
2023/09/18 08:36:52;;;;;;;33.80;18.45;;;;;;;;;;5129534;27;20063;-77
2023/09/18 08:39:18;;;;;;;27.27;17.85;;;;;;;;;;5123417;27;20045;-77
2023/09/18 08:41:44;;;;;;;;;;;;;;;;;;5121986;27;20101;-79
2023/09/18 08:44:10;;;;;;;28.58;16.15;;;;;;;;;;5121282;27;19958;-77
2023/09/18 08:46:37;;;;;;;30.98;17.67;;;;;;;;;;5122797;27;20046;-77
2023/09/18 08:49:04;;;;;;;26.92;16.63;;;;;;;;;;5126775;27;20058;-76
2023/09/18 08:51:31;;;;;;;26.73;16.58;;;;;;;;;;5142714;27;20095;-76
2023/09/18 08:53:57;;;;;;;28.70;16.58;;;;;;;;;;5141173;27;20430;-76
2023/09/18 08:56:23;;;;;;;27.17;16.02;;;;;;;;;;5122339;27;20483;-76
2023/09/18 08:58:50;;;;;;;23.90;14.90;;;;;;;;;;5137636;27;20069;-76
2023/09/18 09:01:16;;;;;;;24.70;14.48;;;;;;;;;;5122701;27;20427;-76
2023/09/18 09:03:45;;;;;;;20.90;12.55;;;;;;;;;;5121277;27;20054;-77
2023/09/18 09:06:11;;;;;;;19.33;11.52;;;;;;;;;;5140073;27;20426;-76
2023/09/18 09:08:38;;;;;;;19.10;11.77;;;;;;;;;;5129386;27;20039;-76
2023/09/18 09:11:04;;;;;;;21.13;11.32;;;;;;;;;;5118474;27;20070;-77
2023/09/18 09:13:30;;;;;;;16.63;10.70;;;;;;;;;;5135288;27;20099;-77
2023/09/18 09:16:00;;;;;;;22.08;10.05;;;;;;;;;;5135723;27;20399;-76
2023/09/18 09:18:27;;;;;;;13.70;9.07;;;;;;;;;;5125266;27;20609;-77
2023/09/18 09:21:05;;;;;;;14.88;9.10;;;;;;;;;;5123088;27;20122;-76
2023/09/18 09:23:45;;;;;;;18.00;9.85;;;;;;;;;;5123861;27;20065;-76
2023/09/18 09:26:15;;;;;;;15.32;9.23;;;;;;;;;;5139156;27;20106;-75
2023/09/18 09:28:43;;;;;;;15.70;8.00;;;;;;;;;;5125085;27;20050;-77
2023/09/18 09:31:10;;;;;;;14.10;7.95;;;;;;;;;;5151916;27;20054;-76
2023/09/18 09:33:41;;;;;;;19.05;8.80;;;;;;;;;;5152423;27;20051;-79
2023/09/18 09:36:07;;;;;;;17.38;8.68;;;;;;;;;;5133056;27;20464;-76
2023/09/18 09:38:34;;;;;;;15.05;7.90;;;;;;;;;;5095735;27;20039;-76
2023/09/18 09:41:06;;;;;;;14.60;8.02;;;;;;;;;;5110697;28;20113;-76
2023/09/18 09:43:33;;;;;;;13.05;7.00;;;;;;;;;;5094721;28;20051;-76
2023/09/18 09:46:03;;;;;;;12.82;7.53;;;;;;;;;;5116424;27;20104;-76
2023/09/18 09:48:32;;;;;;;12.75;6.60;;;;;;;;;;5139076;27;20095;-76
2023/09/18 09:51:00;;;;;;;12.45;6.57;;;;;;;;;;5124443;27;20053;-76
2023/09/18 09:53:43;;;;;;;11.55;6.90;;;;;;;;;;5140176;27;20055;-77
2023/09/18 09:56:09;;;;;;;10.82;6.40;;;;;;;;;;5138886;27;20039;-75
2023/09/18 09:58:35;;;;;;;10.80;5.70;;;;;;;;;;5136194;27;20053;-76
2023/09/18 10:01:05;;;;;;;9.95;5.15;;;;;;;;;;5092955;28;20032;-77
2023/09/18 10:03:31;;;;;;;11.23;5.68;;;;;;;;;;5121263;28;20127;-76
2023/09/18 10:05:59;;;;;;;12.93;6.05;;;;;;;;;;5099728;27;20046;-76
2023/09/18 10:08:26;;;;;;;9.60;5.45;;;;;;;;;;5139222;27;20445;-77
2023/09/18 10:10:57;;;;;;;10.48;5.40;;;;;;;;;;5107989;28;20136;-77
2023/09/18 10:13:32;;;;;;;12.82;5.28;;;;;;;;;;5120297;28;20112;-76
2023/09/18 10:16:02;;;;;;;9.02;5.30;;;;;;;;;;5101932;28;20047;-77
2023/09/18 10:18:29;;;;;;;9.05;4.97;;;;;;;;;;5114853;28;20099;-76
2023/09/18 10:21:04;;;;;;;10.20;4.95;;;;;;;;;;5093577;28;20044;-78
2023/09/18 10:23:33;;;;;;;;;;;;;;;;;;5112138;27;20047;-76
2023/09/18 10:26:05;;;;;;;9.45;4.63;;;;;;;;;;5133684;27;19927;-76
2023/09/18 10:28:32;;;;;;;10.02;4.90;;;;;;;;;;5135790;27;20058;-76
2023/09/18 10:30:59;;;;;;;10.07;4.88;;;;;;;;;;5126845;27;20062;-77
2023/09/18 10:33:25;;;;;;;8.63;5.13;;;;;;;;;;5120662;27;20090;-76
2023/09/18 10:35:53;;;;;;;11.13;4.30;;;;;;;;;;5118071;27;20051;-76
2023/09/18 10:38:19;;;;;;;8.50;4.43;;;;;;;;;;5133497;27;20074;-76
2023/09/18 10:40:47;;;;;;;8.88;5.22;;;;;;;;;;5118307;27;20430;-76
2023/09/18 10:43:15;;;;;;;8.63;4.60;;;;;;;;;;5117698;27;20047;-76
2023/09/18 10:45:41;;;;;;;8.75;4.45;;;;;;;;;;5097797;28;20043;-76
2023/09/18 10:48:08;;;;;;;7.97;4.45;;;;;;;;;;5097024;28;20129;-76
2023/09/18 10:50:35;;;;;;;7.43;4.00;;;;;;;;;;5097858;28;20058;-76
2023/09/18 10:53:01;;;;;;;7.50;3.75;;;;;;;;;;5106898;27;20129;-77
2023/09/18 10:55:27;;;;;;;8.10;3.80;;;;;;;;;;5126828;27;20043;-79
2023/09/18 10:57:57;;;;;;;8.38;3.80;;;;;;;;;;5099659;27;20142;-76
2023/09/18 11:00:27;;;;;;;7.10;3.70;;;;;;;;;;5133592;27;20039;-76
2023/09/18 11:02:55;;;;;;;7.75;3.90;;;;;;;;;;5124025;27;20054;-75
2023/09/18 11:05:31;;;;;;;7.70;3.42;;;;;;;;;;5124073;27;20130;-76
2023/09/18 11:08:16;;;;;;;7.22;3.60;;;;;;;;;;5119561;27;20518;-76
2023/09/18 11:11:04;;;;;;;5.60;3.53;;;;;;;;;;5121859;27;20046;-76
2023/09/18 11:13:46;;;;;;;9.20;3.00;;;;;;;;;;5121364;27;20046;-75
2023/09/18 11:16:15;;;;;;;4.22;2.70;;;;;;;;;;5096126;28;20126;-76
2023/09/18 11:18:42;;;;;;;4.88;2.85;;;;;;;;;;5097084;28;20089;-78
2023/09/18 11:21:08;;;;;;;4.85;2.83;;;;;;;;;;5095626;27;20042;-77
2023/09/18 11:23:42;;;;;;;5.82;3.38;;;;;;;;;;5121567;27;20042;-77
2023/09/18 11:26:09;;;;;;;5.45;2.92;;;;;;;;;;5130759;27;20043;-77
2023/09/18 11:28:37;;;;;;;7.82;2.63;;;;;;;;;;5113323;28;20531;-76
2023/09/18 11:31:03;;;;;;;6.63;2.80;;;;;;;;;;5115971;27;20122;-79
2023/09/18 11:33:39;;;;;;;6.20;2.83;;;;;;;;;;5119332;27;20047;-77
2023/09/18 11:36:14;;;;;;;6.78;2.72;;;;;;;;;;5132750;27;20049;-80
2023/09/18 11:38:56;;;;;;;7.95;2.50;;;;;;;;;;5122145;27;20043;-77
2023/09/18 11:41:25;;;;;;;5.50;2.42;;;;;;;;;;5116146;27;20047;-76
2023/09/18 11:43:51;;;;;;;5.85;2.40;;;;;;;;;;5119417;27;20053;-76
2023/09/18 11:46:22;;;;;;;5.50;2.50;;;;;;;;;;5109631;27;20035;-76
2023/09/18 11:48:52;;;;;;;6.45;2.67;;;;;;;;;;5133587;27;20035;-76
2023/09/18 11:51:22;;;;;;;7.75;2.30;;;;;;;;;;5121251;27;20095;-74
2023/09/18 11:53:50;;;;;;;6.32;2.55;;;;;;;;;;5126329;27;20091;-76
2023/09/18 11:56:17;;;;;;;10.32;2.90;;;;;;;;;;5132978;27;20149;-76
2023/09/18 11:58:47;;;;;;;6.15;2.67;;;;;;;;;;5114033;27;20103;-76
2023/09/18 12:01:15;;;;;;;4.30;2.40;;;;;;;;;;5134363;27;20039;-76
2023/09/18 12:03:41;;;;;;;5.28;2.40;;;;;;;;;;5134331;27;20046;-76
2023/09/18 12:06:09;;;;;;;5.47;2.13;;;;;;;;;;5130380;27;20042;-80
2023/09/18 12:08:35;;;;;;;5.88;2.03;;;;;;;;;;5119696;27;20077;-78
2023/09/18 12:11:07;;;;;;;5.45;2.30;;;;;;;;;;5120593;27;20039;-78
2023/09/18 12:13:34;;;;;;;5.03;2.10;;;;;;;;;;5116299;27;20043;-75
2023/09/18 12:16:01;;;;;;;4.38;2.13;;;;;;;;;;5129680;27;20045;-76
2023/09/18 12:18:32;;;;;;;5.95;2.05;;;;;;;;;;5091076;27;20051;-77
2023/09/18 12:20:58;;;;;;;8.48;2.35;;;;;;;;;;5129158;27;20060;-75
2023/09/18 12:23:24;;;;;;;5.60;1.90;;;;;;;;;;5145787;27;20114;-76
2023/09/18 12:25:51;;;;;;;4.10;2.03;;;;;;;;;;5135626;27;20034;-74
2023/09/18 12:28:18;;;;;;;3.30;2.10;;;;;;;;;;5106354;27;20066;-74
2023/09/18 12:30:47;;;;;;;9.13;2.33;;;;;;;;;;5118083;27;20039;-75
2023/09/18 12:33:13;;;;;;;4.65;2.10;;;;;;;;;;5135084;27;20102;-74
2023/09/18 12:35:42;;;;;;;4.85;2.30;;;;;;;;;;5134629;27;20047;-76
2023/09/18 12:38:15;;;;;;;6.75;2.58;;;;;;;;;;5130146;27;20081;-79
2023/09/18 12:40:41;;;;;;;7.85;2.65;;;;;;;;;;5135874;27;20042;-77
2023/09/18 12:43:07;;;;;;;14.10;3.67;;;;;;;;;;5118481;27;20551;-77
2023/09/18 12:45:34;;;;;;;17.98;4.43;;;;;;;;;;5125839;27;20043;-77
2023/09/18 12:48:01;;;;;;;7.75;4.00;;;;;;;;;;5110142;27;20074;-76
2023/09/18 12:50:27;;;;;;;9.68;4.13;;;;;;;;;;5097879;27;20050;-76
2023/09/18 12:52:54;;;;;;;9.35;4.65;;;;;;;;;;5084607;27;20043;-76
2023/09/18 12:55:24;;;;;;;12.73;6.10;;;;;;;;;;5133103;27;20514;-76
2023/09/18 12:57:54;;;;;;;12.15;5.60;;;;;;;;;;5105654;28;20157;-77
2023/09/18 13:00:22;;;;;;;12.38;6.35;;;;;;;;;;5099869;27;20201;-77
2023/09/18 13:02:55;;;;;;;10.57;6.00;;;;;;;;;;5112409;27;20047;-76
2023/09/18 13:05:25;;;;;;;10.15;5.70;;;;;;;;;;5135541;27;20046;-76
2023/09/18 13:07:52;;;;;;;9.40;5.53;;;;;;;;;;5134401;27;20050;-76
2023/09/18 13:10:18;;;;;;;12.43;5.40;;;;;;;;;;5124785;27;20043;-76
2023/09/18 13:12:50;;;;;;;11.63;5.82;;;;;;;;;;5089530;27;20054;-76
2023/09/18 13:15:26;;;;;;;10.73;5.40;;;;;;;;;;5126395;27;20130;-75
2023/09/18 13:17:53;;;;;;;10.00;5.13;;;;;;;;;;5117450;27;20043;-76
2023/09/18 13:20:24;;;;;;;12.00;5.90;;;;;;;;;;5129027;27;20034;-76
2023/09/18 13:22:51;;;;;;;12.82;5.88;;;;;;;;;;5139660;27;20039;-75
2023/09/18 13:25:21;;;;;;;9.00;5.10;;;;;;;;;;5124907;27;20043;-75
2023/09/18 13:27:48;;;;;;;9.35;5.68;;;;;;;;;;5118323;27;20035;-75
2023/09/18 13:30:16;;;;;;;10.93;5.00;;;;;;;;;;5128823;27;20038;-77
2023/09/18 13:32:43;;;;;;;8.95;5.50;;;;;;;;;;5114775;27;20398;-76
2023/09/18 13:35:11;;;;;;;10.27;5.00;;;;;;;;;;5134389;27;20059;-76
2023/09/18 13:37:38;;;;;;;10.10;5.45;;;;;;;;;;5099158;27;20047;-76
2023/09/18 13:40:08;;;;;;;9.65;4.47;;;;;;;;;;5135005;27;20057;-76
2023/09/18 13:42:40;;;;;;;10.20;4.22;;;;;;;;;;5126089;27;20585;-76
2023/09/18 13:45:07;;;;;;;8.07;3.38;;;;;;;;;;5098036;28;20492;-77
2023/09/18 13:47:36;;;;;;;7.75;3.28;;;;;;;;;;5097027;28;20092;-77
2023/09/18 13:50:06;;;;;;;6.95;3.47;;;;;;;;;;5098003;28;20047;-76
2023/09/18 13:52:33;;;;;;;8.40;3.53;;;;;;;;;;5112696;28;20104;-77
2023/09/18 13:54:59;;;;;;;6.38;3.03;;;;;;;;;;5116631;27;20435;-76
2023/09/18 13:57:25;;;;;;;6.82;3.17;;;;;;;;;;5096832;28;20039;-76
2023/09/18 13:59:52;;;;;;;6.68;3.05;;;;;;;;;;5118005;27;20130;-76
2023/09/18 14:02:18;;;;;;;6.32;3.13;;;;;;;;;;5101064;27;20039;-79
2023/09/18 14:04:45;;;;;;;7.97;3.38;;;;;;;;;;5102206;27;20095;-77
2023/09/18 14:07:12;;;;;;;5.55;2.90;;;;;;;;;;5123600;27;20046;-76
2023/09/18 14:09:38;;;;;;;9.02;3.33;;;;;;;;;;5139056;27;20046;-76
2023/09/18 14:12:07;;;;;;;7.95;2.80;;;;;;;;;;5121916;27;20039;-76
2023/09/18 14:14:34;;;;;;;7.82;3.30;;;;;;;;;;5127284;27;20126;-76
2023/09/18 14:17:00;;;;;;;6.10;2.80;;;;;;;;;;5118368;27;20054;-77
2023/09/18 14:19:27;;;;;;;7.68;2.90;;;;;;;;;;5127332;27;20046;-76
2023/09/18 14:21:53;;;;;;;8.15;3.28;;;;;;;;;;5137432;27;20035;-75
2023/09/18 14:24:22;;;;;;;7.28;3.05;;;;;;;;;;5134037;27;20492;-79
2023/09/18 14:26:48;;;;;;;8.20;3.00;;;;;;;;;;5131517;27;20043;-74
2023/09/18 14:29:15;;;;;;;6.90;3.35;;;;;;;;;;5127045;27;20039;-73
2023/09/18 14:31:42;;;;;;;6.38;3.17;;;;;;;;;;5148119;27;20115;-74
2023/09/18 14:34:08;;;;;;;7.60;3.00;;;;;;;;;;5125873;27;20063;-74
2023/09/18 14:36:34;;;;;;;7.78;2.88;;;;;;;;;;5123391;27;20046;-76
2023/09/18 14:39:01;;;;;;;8.27;2.80;;;;;;;;;;5138206;27;20039;-77
2023/09/18 14:41:27;;;;;;;6.03;2.80;;;;;;;;;;5114967;27;20053;-76